Time;durP1;ratioP1;P1;durP2;ratioP2;P2;SDS_P1;SDS_P2;PMS_P1;PMS_P2;Temp;Humidity;BMP_temperature;BMP_pressure;BME280_temperature;BME280_humidity;BME280_pressure;Samples;Min_cycle;Max_cycle;Signal;HPM_P1;HPM_P2
2023/01/29 00:01:03;;;;;;;16.53;10.80;;;3.00;99.90;;;;;;4963613;28;20184;-86
2023/01/29 00:03:29;;;;;;;22.67;11.37;;;3.00;99.90;;;;;;4959455;29;20392;-89
2023/01/29 00:05:54;;;;;;;17.23;11.17;;;3.00;99.90;;;;;;4960149;28;20569;-88
2023/01/29 00:08:20;;;;;;;16.47;11.50;;;3.00;99.90;;;;;;4959480;28;20241;-95
2023/01/29 00:10:46;;;;;;;17.70;10.90;;;3.00;99.90;;;;;;4960243;29;20176;-91
2023/01/29 00:13:12;;;;;;;15.33;10.07;;;3.00;99.90;;;;;;4959899;29;20205;-94
2023/01/29 00:15:37;;;;;;;15.30;10.67;;;3.00;99.90;;;;;;4959569;28;20427;-92
2023/01/29 00:18:03;;;;;;;16.60;10.27;;;3.00;99.90;;;;;;4960005;28;20603;-82
2023/01/29 00:20:30;;;;;;;20.83;12.30;;;3.00;99.90;;;;;;4959709;28;20180;-94
2023/01/29 00:22:55;;;;;;;20.10;10.30;;;3.00;99.90;;;;;;4959644;29;20181;-94
2023/01/29 00:25:21;;;;;;;17.07;11.80;;;3.00;99.90;;;;;;4961445;29;20420;-91
2023/01/29 00:27:46;;;;;;;23.47;11.17;;;3.00;99.90;;;;;;4960379;28;20636;-85
2023/01/29 00:30:12;;;;;;;23.77;10.13;;;3.00;99.90;;;;;;4954369;29;20158;-92
2023/01/29 00:32:39;;;;;;;16.30;11.97;;;3.00;99.90;;;;;;4969291;28;20618;-88
2023/01/29 00:35:06;;;;;;;16.97;10.87;;;3.00;99.90;;;;;;4967104;29;20472;-85
2023/01/29 00:37:31;;;;;;;19.10;11.30;;;3.10;99.90;;;;;;4973396;28;20425;-84
2023/01/29 00:39:57;;;;;;;17.57;11.40;;;3.10;99.90;;;;;;5142065;23;20502;-84
2023/01/29 00:45:11;;;;;;;19.13;10.90;;;3.10;99.90;;;;;;5102798;23;20503;-83
2023/01/29 00:47:37;;;;;;;17.43;10.97;;;3.10;99.90;;;;;;4976008;28;20403;-87
2023/01/29 00:50:05;;;;;;;16.83;9.37;;;3.10;99.90;;;;;;4975942;28;20458;-84
2023/01/29 00:52:31;;;;;;;18.60;10.90;;;3.10;99.90;;;;;;4992654;23;20244;-85
2023/01/29 00:54:59;;;;;;;17.23;11.37;;;3.10;99.90;;;;;;5065181;23;20551;-84
2023/01/29 00:57:26;;;;;;;16.17;10.60;;;3.10;99.90;;;;;;4960404;23;20222;-85
2023/01/29 00:59:52;;;;;;;15.07;9.33;;;3.10;99.90;;;;;;4985708;23;20538;-85
2023/01/29 01:05:06;;;;;;;17.47;10.37;;;3.20;99.90;;;;;;4992557;28;20168;-85
2023/01/29 01:07:32;;;;;;;18.60;10.20;;;3.20;99.90;;;;;;4991246;28;20428;-85
2023/01/29 01:12:42;;;;;;;17.10;10.40;;;3.10;99.90;;;;;;4987134;28;20475;-94
2023/01/29 01:15:09;;;;;;;16.60;9.33;;;3.10;99.90;;;;;;4981401;28;20480;-88
2023/01/29 01:17:34;;;;;;;13.00;8.43;;;3.10;99.90;;;;;;4979674;28;20254;-87
2023/01/29 01:20:06;;;;;;;23.53;12.33;;;3.10;99.90;;;;;;4979032;28;20963;-95
2023/01/29 01:22:32;;;;;;;19.90;11.53;;;3.10;99.90;;;;;;4977268;28;20218;-92
2023/01/29 01:24:57;;;;;;;15.97;9.83;;;3.20;99.90;;;;;;4977234;28;20499;-94
2023/01/29 01:27:24;;;;;;;17.80;9.80;;;3.10;99.90;;;;;;4976408;28;20206;-93
2023/01/29 01:29:49;;;;;;;15.33;8.83;;;3.20;99.90;;;;;;4976965;28;20172;-87
2023/01/29 01:32:15;;;;;;;15.50;8.70;;;3.20;99.90;;;;;;4977052;28;20414;-93
2023/01/29 01:34:40;;;;;;;13.43;9.07;;;3.20;99.90;;;;;;4974689;28;20213;-91
2023/01/29 01:37:06;;;;;;;14.07;8.53;;;3.30;99.90;;;;;;4976725;28;20186;-94
2023/01/29 01:39:31;;;;;;;18.00;9.67;;;3.30;99.90;;;;;;4981005;28;20180;-94
2023/01/29 01:41:57;;;;;;;15.63;8.90;;;3.30;99.90;;;;;;4982885;28;20174;-90
2023/01/29 01:44:52;;;;;;;16.93;8.90;;;3.30;99.90;;;;;;4982855;28;20172;-93
2023/01/29 01:47:23;;;;;;;13.77;8.93;;;3.30;99.90;;;;;;4998594;28;20180;-91
2023/01/29 01:49:49;;;;;;;19.63;9.67;;;3.30;99.90;;;;;;4994940;28;20416;-95
2023/01/29 01:52:16;;;;;;;12.60;7.17;;;3.30;99.90;;;;;;4998755;28;20854;-93
2023/01/29 01:54:42;;;;;;;13.13;7.93;;;3.30;99.90;;;;;;5006086;28;20569;-90
2023/01/29 01:57:24;;;;;;;14.73;7.97;;;3.30;99.90;;;;;;5011763;28;20448;-91
2023/01/29 01:59:58;;;;;;;15.93;9.60;;;3.30;99.90;;;;;;5006230;28;20569;-93
2023/01/29 02:10:43;;;;;;;10.63;7.13;;;3.30;99.90;;;;;;5009809;28;20501;-84
2023/01/29 02:13:11;;;;;;;13.63;8.00;;;3.40;99.90;;;;;;5011839;28;20470;-89
2023/01/29 02:15:40;;;;;;;11.07;6.70;;;3.40;99.90;;;;;;5013182;28;20432;-93
2023/01/29 02:18:07;;;;;;;13.70;10.23;;;3.40;99.90;;;;;;5012214;28;20453;-93
2023/01/29 02:20:32;;;;;;;13.23;7.27;;;3.40;99.90;;;;;;5012601;28;20410;-83
2023/01/29 02:23:07;;;;;;;11.47;6.87;;;3.40;99.90;;;;;;5014458;28;20427;-83
2023/01/29 02:26:00;;;;;;;12.87;8.03;;;3.40;99.90;;;;;;5015913;28;20583;-83
2023/01/29 02:28:36;;;;;;;12.63;7.73;;;3.40;99.90;;;;;;5029977;23;20518;-84
2023/01/29 02:31:22;;;;;;;14.50;9.13;;;3.40;99.90;;;;;;5042207;23;20554;-84
2023/01/29 02:34:10;;;;;;;11.90;7.83;;;3.40;99.90;;;;;;5036494;28;20489;-84
2023/01/29 02:36:45;;;;;;;8.83;6.90;;;3.40;99.90;;;;;;5018011;28;20582;-84
2023/01/29 02:39:27;;;;;;;14.00;9.23;;;3.30;99.90;;;;;;5033507;28;20511;-86
2023/01/29 02:42:13;;;;;;;12.07;7.63;;;3.30;99.90;;;;;;5032929;28;20910;-87
2023/01/29 02:44:58;;;;;;;14.37;7.20;;;3.30;99.90;;;;;;5019161;28;20457;-84
2023/01/29 02:47:32;;;;;;;13.93;8.17;;;3.30;99.90;;;;;;5038455;28;21042;-88
2023/01/29 02:50:19;;;;;;;16.40;9.27;;;3.30;99.90;;;;;;5031754;28;20428;-84
2023/01/29 02:53:02;;;;;;;12.13;7.50;;;3.30;99.90;;;;;;5029923;28;20500;-85
2023/01/29 02:55:48;;;;;;;13.53;8.53;;;3.30;99.90;;;;;;5044528;28;20431;-84
2023/01/29 02:58:30;;;;;;;16.67;8.70;;;3.30;99.90;;;;;;5031585;28;20518;-90
2023/01/29 03:01:01;;;;;;;14.40;8.17;;;3.30;99.90;;;;;;5030106;28;20771;-92
2023/01/29 03:03:36;;;;;;;15.97;8.40;;;3.30;99.90;;;;;;5030191;28;20456;-84
2023/01/29 03:06:17;;;;;;;11.10;7.03;;;3.30;99.90;;;;;;5043031;28;20428;-83
2023/01/29 03:08:49;;;;;;;13.27;8.57;;;3.30;99.90;;;;;;5037227;28;20944;-91
2023/01/29 03:11:16;;;;;;;11.97;6.73;;;3.30;99.90;;;;;;5019305;28;20924;-82
2023/01/29 03:13:51;;;;;;;15.70;9.07;;;3.30;99.90;;;;;;5036991;28;20879;-91
2023/01/29 03:16:44;;;;;;;21.00;9.40;;;3.20;99.90;;;;;;5020234;28;20452;-85
2023/01/29 03:19:16;;;;;;;17.40;9.40;;;3.20;99.90;;;;;;5020096;28;20425;-90
2023/01/29 03:21:58;;;;;;;14.50;9.70;;;3.20;99.90;;;;;;5037635;28;20406;-93
2023/01/29 03:33:12;;;;;;;11.83;7.63;;;3.20;99.90;;;;;;5037021;28;20467;-83
2023/01/29 03:35:48;;;;;;;11.80;7.63;;;3.20;99.90;;;;;;5036778;28;20547;-83
2023/01/29 03:38:14;;;;;;;11.97;6.83;;;3.20;99.90;;;;;;5037270;28;20757;-92
2023/01/29 03:41:18;;;;;;;14.63;8.07;;;3.20;99.90;;;;;;5018916;28;20438;-92
2023/01/29 03:44:09;;;;;;;13.00;8.07;;;3.20;99.90;;;;;;5031910;28;20503;-94
2023/01/29 03:46:37;;;;;;;14.97;7.50;;;3.10;99.90;;;;;;5037134;28;20406;-92
2023/01/29 03:49:33;;;;;;;10.63;7.40;;;3.10;99.90;;;;;;5031245;28;20494;-90
2023/01/29 03:52:16;;;;;;;16.43;9.07;;;3.10;99.90;;;;;;5018875;28;20439;-84
2023/01/29 03:55:05;;;;;;;9.50;6.50;;;3.10;99.90;;;;;;5036734;28;20468;-83
2023/01/29 03:57:35;;;;;;;15.13;7.97;;;3.20;99.90;;;;;;5018559;28;20812;-83
2023/01/29 04:00:17;;;;;;;10.83;7.73;;;3.20;99.90;;;;;;5018832;28;20429;-82
2023/01/29 04:03:09;;;;;;;11.43;7.20;;;3.20;99.90;;;;;;5018829;28;20509;-95
2023/01/29 04:05:51;;;;;;;11.70;7.07;;;3.20;99.90;;;;;;5036689;28;20403;-93
2023/01/29 04:08:25;;;;;;;10.97;6.90;;;3.20;99.90;;;;;;5018942;28;20418;-93
2023/01/29 04:10:54;;;;;;;16.13;7.27;;;3.20;99.90;;;;;;5017700;28;20851;-82
2023/01/29 04:13:20;;;;;;;10.37;6.83;;;3.30;99.90;;;;;;5036015;28;20554;-93
2023/01/29 04:15:53;;;;;;;11.63;6.73;;;3.30;99.90;;;;;;5018693;28;20470;-88
2023/01/29 04:18:19;;;;;;;10.27;7.23;;;3.30;99.90;;;;;;5018678;28;20433;-83
2023/01/29 04:20:45;;;;;;;12.77;6.57;;;3.30;99.90;;;;;;5035883;28;20827;-82
2023/01/29 04:23:22;;;;;;;11.67;6.60;;;3.30;99.90;;;;;;5035727;28;20643;-82
2023/01/29 04:26:05;;;;;;;12.13;7.13;;;3.30;99.90;;;;;;5022464;28;20414;-87
2023/01/29 04:28:53;;;;;;;12.50;6.00;;;3.30;99.90;;;;;;5035958;28;20437;-92
2023/01/29 04:31:23;;;;;;;9.20;6.10;;;3.30;99.90;;;;;;5033504;28;20469;-89
2023/01/29 04:34:07;;;;;;;9.17;5.30;;;3.30;99.90;;;;;;5050726;28;20480;-89
2023/01/29 04:36:54;;;;;;;9.43;6.27;;;3.40;99.90;;;;;;5031297;28;20434;-84
2023/01/29 04:39:28;;;;;;;9.57;6.07;;;3.40;99.90;;;;;;5047630;28;20413;-85
2023/01/29 04:42:00;;;;;;;10.23;5.57;;;3.40;99.90;;;;;;5048175;28;20428;-85
2023/01/29 04:44:53;;;;;;;11.73;5.90;;;3.40;99.90;;;;;;5028347;28;20943;-84
2023/01/29 04:47:32;;;;;;;11.53;6.00;;;3.40;99.90;;;;;;5053824;28;20418;-84
2023/01/29 04:50:02;;;;;;;13.03;6.80;;;3.40;99.90;;;;;;5033261;28;20442;-84
2023/01/29 04:52:47;;;;;;;10.43;5.27;;;3.40;99.90;;;;;;5050850;28;20812;-84
2023/01/29 04:55:39;;;;;;;9.43;4.87;;;3.40;99.90;;;;;;5033924;28;20464;-84
2023/01/29 04:58:21;;;;;;;10.30;5.80;;;3.40;99.90;;;;;;5034198;23;20495;-84
2023/01/29 05:00:52;;;;;;;9.63;6.00;;;3.40;99.90;;;;;;5012428;23;20482;-84
2023/01/29 05:03:18;;;;;;;9.77;5.90;;;3.40;99.90;;;;;;5017921;23;20499;-84
2023/01/29 05:05:46;;;;;;;10.97;6.10;;;3.40;99.90;;;;;;5031893;23;20457;-84
2023/01/29 05:08:16;;;;;;;9.23;5.73;;;3.40;99.90;;;;;;4989974;28;20434;-85
2023/01/29 05:13:19;;;;;;;10.73;5.90;;;3.40;99.90;;;;;;4756960;26;20481;-84
2023/01/29 05:18:10;;;;;;;15.67;6.70;;;3.30;99.90;;;;;;5082541;23;20495;-85
2023/01/29 05:20:43;;;;;;;15.20;5.70;;;3.30;99.90;;;;;;5001486;23;20192;-84
2023/01/29 05:23:18;;;;;;;12.63;6.50;;;3.30;99.90;;;;;;4971779;28;20282;-85
2023/01/29 05:25:45;;;;;;;11.67;7.10;;;3.30;99.90;;;;;;4990473;28;20468;-85
2023/01/29 05:28:18;;;;;;;12.83;7.13;;;3.30;99.90;;;;;;4988346;23;20535;-85
2023/01/29 05:33:30;;;;;;;12.80;6.97;;;3.30;99.90;;;;;;4969972;28;20510;-84
2023/01/29 05:35:58;;;;;;;10.57;7.10;;;3.30;99.90;;;;;;4947070;29;20454;-92
2023/01/29 05:38:24;;;;;;;13.27;7.33;;;3.30;99.90;;;;;;4956692;28;20428;-90
2023/01/29 05:40:50;;;;;;;12.87;7.37;;;3.30;99.90;;;;;;4938965;28;20428;-92
2023/01/29 05:43:18;;;;;;;15.80;8.87;;;3.20;99.90;;;;;;4956516;28;20428;-92
2023/01/29 05:45:54;;;;;;;12.63;7.40;;;3.20;99.90;;;;;;4939180;29;20831;-91
2023/01/29 05:48:19;;;;;;;12.37;6.07;;;3.20;99.90;;;;;;4956334;28;20420;-91
2023/01/29 05:50:45;;;;;;;15.33;8.47;;;3.20;99.90;;;;;;4956522;29;20424;-83
2023/01/29 05:53:10;;;;;;;17.30;9.10;;;3.20;99.90;;;;;;4957745;28;20181;-84
2023/01/29 05:55:36;;;;;;;11.87;7.00;;;3.20;99.90;;;;;;4956345;29;20173;-84
2023/01/29 05:58:01;;;;;;;17.33;9.27;;;3.20;99.90;;;;;;4972555;28;20182;-84
2023/01/29 06:02:52;;;;;;;16.40;9.33;;;3.20;99.90;;;;;;4984194;23;20280;-83
2023/01/29 06:05:18;;;;;;;13.23;8.10;;;3.20;99.90;;;;;;4975335;28;20194;-84
2023/01/29 06:07:44;;;;;;;15.03;8.77;;;3.20;99.90;;;;;;4992963;23;20210;-84
2023/01/29 06:10:14;;;;;;;17.17;9.33;;;3.10;99.90;;;;;;5000930;23;20257;-84
2023/01/29 06:12:43;;;;;;;16.97;9.83;;;3.10;99.90;;;;;;4977129;28;20410;-88
2023/01/29 06:15:14;;;;;;;19.37;9.10;;;3.10;99.90;;;;;;4958816;28;20597;-96
2023/01/29 06:17:40;;;;;;;13.00;9.90;;;3.10;99.90;;;;;;4976837;28;20909;-94
2023/01/29 06:20:06;;;;;;;19.83;9.83;;;3.10;99.90;;;;;;4976520;28;20938;-93
2023/01/29 06:22:32;;;;;;;15.03;8.47;;;3.10;99.90;;;;;;4959219;28;20414;-84
2023/01/29 06:24:58;;;;;;;17.10;10.87;;;3.10;99.90;;;;;;4961942;28;20448;-93
2023/01/29 06:27:23;;;;;;;19.10;11.03;;;3.00;99.90;;;;;;4980012;28;20415;-92
2023/01/29 06:29:49;;;;;;;17.53;10.97;;;3.00;99.90;;;;;;4980870;28;20178;-84
2023/01/29 06:32:14;;;;;;;16.90;8.87;;;3.00;99.90;;;;;;4983361;28;20630;-92
2023/01/29 06:34:40;;;;;;;15.43;9.30;;;3.00;99.90;;;;;;4983367;28;20227;-83
2023/01/29 06:37:06;;;;;;;16.80;9.57;;;2.90;99.90;;;;;;4978879;28;20211;-91
2023/01/29 06:39:33;;;;;;;16.83;10.07;;;2.90;99.90;;;;;;4977962;28;20181;-92
2023/01/29 06:41:59;;;;;;;18.13;9.70;;;2.90;99.90;;;;;;4979241;28;20420;-84
2023/01/29 06:44:24;;;;;;;17.27;10.37;;;2.80;99.90;;;;;;4967773;28;20431;-85
2023/01/29 06:46:50;;;;;;;21.00;10.40;;;2.90;99.90;;;;;;4986349;28;20235;-84
2023/01/29 06:49:15;;;;;;;21.10;11.00;;;2.80;99.90;;;;;;4978867;28;20168;-89
2023/01/29 06:51:41;;;;;;;15.33;9.73;;;2.80;99.90;;;;;;4978593;28;20206;-86
2023/01/29 06:54:08;;;;;;;14.47;9.40;;;2.70;99.90;;;;;;4978000;28;20212;-90
2023/01/29 06:56:33;;;;;;;17.33;10.43;;;2.70;99.90;;;;;;4980744;28;20281;-84
2023/01/29 06:58:59;;;;;;;19.50;12.50;;;2.70;99.90;;;;;;4988086;28;20419;-94
2023/01/29 07:01:25;;;;;;;13.93;8.73;;;2.60;99.90;;;;;;4984243;28;20184;-93
2023/01/29 07:03:50;;;;;;;30.77;11.50;;;2.50;99.90;;;;;;4976366;28;20184;-94
2023/01/29 07:06:19;;;;;;;20.50;11.03;;;2.50;99.90;;;;;;4977974;28;20168;-82
2023/01/29 07:08:44;;;;;;;17.37;10.47;;;2.50;99.90;;;;;;4977588;28;20220;-94
2023/01/29 07:11:10;;;;;;;14.13;10.43;;;2.50;99.90;;;;;;4978380;28;20419;-89
2023/01/29 07:13:36;;;;;;;19.10;9.97;;;2.50;99.90;;;;;;4980028;28;20196;-95
2023/01/29 07:16:03;;;;;;;15.13;10.60;;;2.50;99.90;;;;;;4988918;28;20466;-93
2023/01/29 07:18:29;;;;;;;19.80;9.80;;;2.50;99.90;;;;;;4993225;28;20168;-85
2023/01/29 07:20:55;;;;;;;22.07;13.00;;;2.50;99.90;;;;;;4984252;28;20470;-93
2023/01/29 07:23:21;;;;;;;22.10;10.60;;;2.50;99.90;;;;;;4970077;28;20424;-84
2023/01/29 07:25:48;;;;;;;17.37;11.50;;;2.50;99.90;;;;;;4971128;28;20416;-83
2023/01/29 07:28:18;;;;;;;20.70;11.80;;;2.60;99.90;;;;;;4985031;28;20420;-84
2023/01/29 07:30:44;;;;;;;22.60;11.03;;;2.60;99.90;;;;;;4970436;28;20424;-87
2023/01/29 07:33:10;;;;;;;17.43;10.10;;;2.60;99.90;;;;;;4985136;28;20968;-95
2023/01/29 07:35:37;;;;;;;21.70;9.93;;;2.70;99.90;;;;;;4987576;28;20184;-87
2023/01/29 07:38:10;;;;;;;21.80;12.30;;;2.70;99.90;;;;;;4987453;28;20831;-92
2023/01/29 07:40:36;;;;;;;23.37;13.10;;;2.70;99.90;;;;;;4984655;28;20470;-85
2023/01/29 07:43:04;;;;;;;19.83;11.50;;;2.70;99.90;;;;;;4982338;28;21047;-95
2023/01/29 07:45:34;;;;;;;23.10;13.13;;;2.70;99.90;;;;;;4981245;28;20605;-94
2023/01/29 07:47:59;;;;;;;17.30;10.23;;;2.60;99.90;;;;;;4982723;28;20437;-94
2023/01/29 07:50:25;;;;;;;19.90;10.80;;;2.60;99.90;;;;;;4965249;28;20428;-95
2023/01/29 07:52:57;;;;;;;20.43;11.20;;;2.70;99.90;;;;;;4964124;28;20616;-94
2023/01/29 07:55:23;;;;;;;20.57;10.67;;;2.70;99.90;;;;;;4979395;28;20464;-96
2023/01/29 07:57:59;;;;;;;21.30;12.63;;;2.60;99.90;;;;;;4962657;28;20427;-92
2023/01/29 08:00:25;;;;;;;15.40;10.70;;;2.60;99.90;;;;;;4972027;28;20431;-91
2023/01/29 08:02:50;;;;;;;20.73;10.67;;;2.70;99.90;;;;;;4965005;28;20432;-94
2023/01/29 08:05:22;;;;;;;19.40;11.93;;;2.70;99.90;;;;;;4979637;28;20180;-93
2023/01/29 08:07:52;;;;;;;16.20;11.17;;;2.70;99.90;;;;;;4976323;28;20189;-93
2023/01/29 08:10:18;;;;;;;13.20;9.30;;;2.70;99.90;;;;;;4978729;28;20464;-87
2023/01/29 08:12:43;;;;;;;21.27;11.57;;;2.70;99.90;;;;;;4987100;28;21014;-86
2023/01/29 08:15:09;;;;;;;18.20;10.07;;;2.80;99.90;;;;;;4986443;28;20211;-93
2023/01/29 08:17:44;;;;;;;20.07;11.73;;;2.90;99.90;;;;;;4976991;28;20184;-92
2023/01/29 08:20:10;;;;;;;18.17;10.83;;;2.90;99.90;;;;;;4977077;28;20423;-91
2023/01/29 08:22:35;;;;;;;23.10;13.30;;;2.90;99.90;;;;;;4976745;28;20420;-94
2023/01/29 08:25:07;;;;;;;18.80;12.90;;;2.90;99.90;;;;;;4976543;28;20907;-91
2023/01/29 08:27:33;;;;;;;18.37;12.43;;;2.90;99.90;;;;;;4959912;28;20613;-90
2023/01/29 08:29:58;;;;;;;23.07;12.87;;;3.00;99.90;;;;;;4959656;28;20432;-90
2023/01/29 08:32:30;;;;;;;23.33;14.20;;;3.00;99.90;;;;;;4959336;28;20179;-90
2023/01/29 08:34:56;;;;;;;26.07;14.53;;;3.10;99.90;;;;;;4976351;28;20241;-89
2023/01/29 08:37:21;;;;;;;21.97;16.17;;;3.10;99.90;;;;;;4959183;28;20916;-85
2023/01/29 08:39:47;;;;;;;25.10;14.43;;;3.10;99.90;;;;;;4976135;28;20181;-90
2023/01/29 08:42:17;;;;;;;22.90;15.03;;;3.10;99.90;;;;;;4959293;28;20188;-91
2023/01/29 08:44:42;;;;;;;23.90;14.13;;;3.10;99.90;;;;;;4959244;28;20652;-91
2023/01/29 08:47:08;;;;;;;26.00;15.30;;;3.20;99.90;;;;;;4958908;28;20408;-88
2023/01/29 08:49:33;;;;;;;26.47;15.60;;;3.20;99.90;;;;;;4958525;28;20172;-91
2023/01/29 08:51:58;;;;;;;20.60;14.30;;;3.20;99.90;;;;;;4959064;28;20189;-89
2023/01/29 08:54:24;;;;;;;29.53;17.93;;;3.20;99.90;;;;;;4958874;28;20738;-89
2023/01/29 08:56:50;;;;;;;28.10;16.60;;;3.20;99.90;;;;;;4958999;28;20271;-91
2023/01/29 08:59:18;;;;;;;31.57;14.50;;;3.30;99.90;;;;;;4976428;28;20205;-89
2023/01/29 09:01:44;;;;;;;30.83;17.70;;;3.30;99.90;;;;;;4958729;28;20502;-91
2023/01/29 09:04:10;;;;;;;29.30;18.60;;;3.30;99.90;;;;;;4959630;28;20843;-91
2023/01/29 09:06:35;;;;;;;31.13;17.07;;;3.40;99.90;;;;;;4976764;28;20207;-89
2023/01/29 09:09:04;;;;;;;30.60;17.40;;;3.40;99.90;;;;;;4974755;28;20500;-92
2023/01/29 09:11:29;;;;;;;28.60;17.20;;;3.40;99.90;;;;;;4975688;28;20623;-88
2023/01/29 09:13:55;;;;;;;27.40;17.30;;;3.50;99.90;;;;;;4975972;28;20480;-90
2023/01/29 09:16:20;;;;;;;36.23;16.17;;;3.50;99.90;;;;;;4958588;28;20179;-90
2023/01/29 09:18:53;;;;;;;31.17;16.37;;;3.50;99.90;;;;;;4957281;28;20263;-92
2023/01/29 09:21:19;;;;;;;32.23;18.80;;;3.50;99.90;;;;;;4956700;28;20271;-86
2023/01/29 09:23:44;;;;;;;31.23;17.17;;;3.50;99.90;;;;;;4957021;28;20945;-92
2023/01/29 09:26:09;;;;;;;32.57;17.90;;;3.50;99.90;;;;;;4957674;28;20640;-89
2023/01/29 09:28:35;;;;;;;36.33;18.70;;;3.50;99.90;;;;;;4958850;28;20267;-92
2023/01/29 09:31:02;;;;;;;35.17;20.03;;;3.60;99.90;;;;;;4974563;28;20187;-92
2023/01/29 09:33:28;;;;;;;32.97;19.50;;;3.60;99.90;;;;;;4956940;28;20263;-92
2023/01/29 09:35:53;;;;;;;37.90;20.23;;;3.60;99.90;;;;;;4977500;28;20924;-91
2023/01/29 09:38:19;;;;;;;32.90;17.87;;;3.60;99.90;;;;;;4958960;28;20871;-90
2023/01/29 09:41:05;;;;;;;32.63;18.10;;;3.70;99.90;;;;;;4980185;28;20184;-86
2023/01/29 09:43:38;;;;;;;35.77;20.37;;;3.60;99.90;;;;;;4979484;28;20176;-92
2023/01/29 09:46:19;;;;;;;37.30;21.93;;;3.70;99.90;;;;;;4974765;28;20475;-91
2023/01/29 09:48:46;;;;;;;36.13;21.47;;;3.70;99.90;;;;;;4975410;28;20431;-92
2023/01/29 09:51:26;;;;;;;40.67;21.37;;;3.70;99.90;;;;;;4976514;28;20427;-89
2023/01/29 09:54:05;;;;;;;31.07;19.40;;;3.80;99.90;;;;;;4975714;28;20467;-93
2023/01/29 09:56:37;;;;;;;39.50;21.40;;;3.80;99.90;;;;;;4975189;28;20431;-92
2023/01/29 09:59:02;;;;;;;34.10;18.83;;;3.80;99.90;;;;;;4960497;28;20427;-91
2023/01/29 10:02:01;;;;;;;43.27;23.03;;;3.80;99.90;;;;;;4980185;28;20439;-92
2023/01/29 10:05:03;;;;;;;37.13;19.80;;;3.80;99.90;;;;;;4963992;28;20180;-87
2023/01/29 10:07:58;;;;;;;41.60;22.50;;;3.80;99.90;;;;;;4978852;28;20515;-92
2023/01/29 10:10:54;;;;;;;30.50;18.83;;;3.80;99.90;;;;;;4979968;28;20473;-91
2023/01/29 10:13:36;;;;;;;36.63;18.93;;;3.90;99.90;;;;;;4980414;28;20432;-92
2023/01/29 10:16:19;;;;;;;32.30;19.30;;;3.90;99.90;;;;;;4962760;28;20438;-92
2023/01/29 10:19:05;;;;;;;28.17;16.50;;;3.90;99.90;;;;;;4977168;28;20460;-92
2023/01/29 10:21:49;;;;;;;30.77;18.47;;;3.90;99.90;;;;;;4979899;28;20483;-90
2023/01/29 10:24:30;;;;;;;35.97;20.93;;;4.00;99.90;;;;;;4978154;28;20828;-93
2023/01/29 10:26:57;;;;;;;30.53;18.80;;;4.00;99.90;;;;;;4980366;28;20424;-91
2023/01/29 10:29:26;;;;;;;34.07;19.70;;;4.00;99.90;;;;;;4978858;28;20833;-94
2023/01/29 10:31:56;;;;;;;38.87;21.70;;;4.10;99.90;;;;;;4963554;28;20433;-92
2023/01/29 10:34:35;;;;;;;36.17;21.00;;;4.00;99.90;;;;;;4962291;28;20484;-93
2023/01/29 10:37:17;;;;;;;36.50;21.27;;;4.00;99.90;;;;;;4962807;28;20522;-90
2023/01/29 10:39:42;;;;;;;34.57;18.60;;;4.00;99.90;;;;;;4984267;28;20507;-84
2023/01/29 10:42:21;;;;;;;38.17;21.57;;;4.00;99.90;;;;;;4987174;28;20415;-92
2023/01/29 10:45:06;;;;;;;30.77;19.63;;;4.10;99.90;;;;;;4981065;28;20208;-87
2023/01/29 10:47:43;;;;;;;30.63;18.60;;;4.10;99.90;;;;;;4978139;28;20413;-90
2023/01/29 10:50:27;;;;;;;31.57;19.10;;;4.10;99.90;;;;;;4978072;28;20514;-89
2023/01/29 10:53:42;;;;;;;42.43;22.80;;;4.20;99.90;;;;;;4978886;28;20442;-91
2023/01/29 10:56:27;;;;;;;33.40;20.60;;;4.30;99.90;;;;;;4955681;28;20426;-91
2023/01/29 10:58:58;;;;;;;28.53;18.53;;;4.40;99.90;;;;;;4978341;28;20793;-92
2023/01/29 11:01:25;;;;;;;32.83;18.90;;;4.30;99.90;;;;;;4961158;28;20490;-88
2023/01/29 11:04:01;;;;;;;31.17;17.87;;;4.30;99.90;;;;;;4977888;28;20428;-91
2023/01/29 11:06:34;;;;;;;29.40;19.03;;;4.30;99.90;;;;;;4977729;28;20913;-91
2023/01/29 11:09:23;;;;;;;28.47;18.33;;;4.20;99.90;;;;;;4991423;28;20509;-92
2023/01/29 11:11:56;;;;;;;32.70;19.23;;;4.20;99.90;;;;;;4979622;28;20440;-90
2023/01/29 11:14:30;;;;;;;29.90;17.23;;;4.10;99.90;;;;;;4978050;28;20473;-88
2023/01/29 11:16:56;;;;;;;30.80;18.77;;;4.10;99.90;;;;;;4977673;28;20404;-90
2023/01/29 11:19:40;;;;;;;28.30;18.47;;;4.10;99.90;;;;;;4960486;28;20511;-92
2023/01/29 11:22:29;;;;;;;26.90;17.00;;;4.20;99.90;;;;;;4977184;28;20172;-90
2023/01/29 11:25:16;;;;;;;27.67;18.30;;;4.10;99.90;;;;;;4959984;28;20486;-92
2023/01/29 11:27:56;;;;;;;25.73;16.50;;;4.20;99.90;;;;;;4960488;28;20405;-90
2023/01/29 11:30:34;;;;;;;26.33;16.00;;;4.10;99.90;;;;;;4977187;28;20431;-90
2023/01/29 11:33:19;;;;;;;21.87;13.03;;;4.10;99.90;;;;;;4977520;28;20416;-90
2023/01/29 11:35:44;;;;;;;23.13;15.10;;;4.10;99.90;;;;;;4977537;28;20429;-91
2023/01/29 11:38:27;;;;;;;28.27;17.20;;;4.10;99.90;;;;;;4976964;28;20411;-90
2023/01/29 11:41:05;;;;;;;22.10;15.20;;;4.10;99.90;;;;;;4977287;28;20420;-92
2023/01/29 11:43:31;;;;;;;30.40;17.17;;;4.10;99.90;;;;;;4977273;28;20475;-92
2023/01/29 11:46:06;;;;;;;23.93;15.27;;;4.10;99.90;;;;;;4977415;28;20413;-90
2023/01/29 11:48:47;;;;;;;23.13;14.70;;;4.00;99.90;;;;;;4976834;28;20463;-91
2023/01/29 11:51:23;;;;;;;28.23;16.80;;;4.10;99.90;;;;;;4976943;28;20418;-88
2023/01/29 11:53:52;;;;;;;24.20;14.07;;;4.10;99.90;;;;;;4982111;28;20457;-93
2023/01/29 11:56:53;;;;;;;25.43;16.70;;;4.10;99.90;;;;;;4980274;28;20499;-93
2023/01/29 11:59:39;;;;;;;31.17;15.70;;;4.10;99.90;;;;;;4963151;28;20458;-85
2023/01/29 12:02:17;;;;;;;23.57;15.63;;;4.10;99.90;;;;;;4961335;28;20424;-81
2023/01/29 12:04:43;;;;;;;29.73;14.83;;;4.20;99.90;;;;;;4939846;29;20432;-85
2023/01/29 12:07:14;;;;;;;26.00;16.77;;;4.20;99.90;;;;;;4917891;28;20505;-82
2023/01/29 12:09:40;;;;;;;27.83;17.00;;;4.20;99.90;;;;;;4955780;28;20457;-87
2023/01/29 12:12:40;;;;;;;25.17;14.80;;;4.20;99.90;;;;;;4939434;29;20430;-82
2023/01/29 12:15:18;;;;;;;21.00;14.03;;;4.20;99.90;;;;;;4935567;28;20581;-83
2023/01/29 12:17:51;;;;;;;26.33;15.07;;;4.20;99.90;;;;;;4957531;28;20785;-87
2023/01/29 12:20:23;;;;;;;26.73;14.50;;;4.20;99.90;;;;;;4957659;28;20414;-81
2023/01/29 12:23:03;;;;;;;26.70;16.57;;;4.30;99.90;;;;;;4960000;28;20778;-83
2023/01/29 12:25:38;;;;;;;22.87;15.73;;;4.30;99.90;;;;;;4959831;28;20410;-83
2023/01/29 12:28:33;;;;;;;25.37;15.37;;;4.30;99.90;;;;;;4938852;28;20434;-86
2023/01/29 12:31:13;;;;;;;23.07;14.33;;;4.30;99.90;;;;;;4956429;28;20423;-84
2023/01/29 12:33:51;;;;;;;18.00;13.20;;;4.30;99.90;;;;;;4955548;28;20452;-85
2023/01/29 12:36:24;;;;;;;28.10;16.30;;;4.40;99.90;;;;;;4957344;28;20409;-92
2023/01/29 12:38:50;;;;;;;23.90;15.07;;;4.30;99.90;;;;;;4956813;28;20408;-85
2023/01/29 12:41:28;;;;;;;23.60;15.40;;;4.30;99.90;;;;;;4938681;29;20527;-87
2023/01/29 12:44:23;;;;;;;19.40;14.33;;;4.30;99.90;;;;;;4954353;28;20771;-87
2023/01/29 12:46:58;;;;;;;24.50;16.50;;;4.30;99.90;;;;;;4969970;28;20424;-88
2023/01/29 12:49:28;;;;;;;22.73;14.77;;;4.30;99.90;;;;;;4957977;28;20574;-90
2023/01/29 12:52:03;;;;;;;26.97;15.00;;;4.30;99.90;;;;;;4959296;28;20472;-90
2023/01/29 12:54:38;;;;;;;26.57;17.70;;;4.30;99.90;;;;;;4947191;28;20476;-88
2023/01/29 12:57:12;;;;;;;25.53;15.80;;;4.30;99.90;;;;;;4979361;28;20438;-87
2023/01/29 13:00:00;;;;;;;27.40;17.20;;;4.30;99.90;;;;;;4963086;28;20438;-89
2023/01/29 13:02:39;;;;;;;25.37;14.37;;;4.30;99.90;;;;;;4948342;28;20460;-92
2023/01/29 13:05:20;;;;;;;27.03;16.10;;;4.20;99.90;;;;;;4951101;28;20425;-84
2023/01/29 13:07:51;;;;;;;26.30;15.50;;;4.30;99.90;;;;;;4943957;28;20425;-86
2023/01/29 13:10:24;;;;;;;25.00;15.27;;;4.30;99.90;;;;;;4969446;28;20503;-87
2023/01/29 13:13:22;;;;;;;22.53;14.23;;;4.30;99.90;;;;;;4957305;28;20432;-86
2023/01/29 13:15:48;;;;;;;21.37;14.30;;;4.30;99.90;;;;;;4957829;28;20444;-88
2023/01/29 13:18:39;;;;;;;23.43;14.73;;;4.40;99.90;;;;;;4975928;28;20416;-88
2023/01/29 13:21:04;;;;;;;21.63;14.07;;;4.40;99.90;;;;;;4975575;28;20271;-90
2023/01/29 13:23:35;;;;;;;26.67;15.80;;;4.30;99.90;;;;;;4958949;28;20452;-93
2023/01/29 13:26:01;;;;;;;22.47;14.90;;;4.30;99.90;;;;;;4961903;28;20180;-93
2023/01/29 13:28:27;;;;;;;24.67;14.67;;;4.30;99.90;;;;;;4960014;28;20503;-91
2023/01/29 13:31:17;;;;;;;23.03;15.40;;;4.30;99.90;;;;;;4963561;28;20417;-91
2023/01/29 13:33:52;;;;;;;23.70;15.10;;;4.30;99.90;;;;;;4974555;28;20718;-89
2023/01/29 13:36:24;;;;;;;24.60;14.47;;;4.30;99.90;;;;;;4958487;28;20420;-89
2023/01/29 13:38:59;;;;;;;22.77;13.33;;;4.30;99.90;;;;;;4956308;28;20440;-87
2023/01/29 13:41:32;;;;;;;23.43;11.43;;;4.30;99.90;;;;;;4957328;28;20499;-84
2023/01/29 13:44:03;;;;;;;18.67;13.07;;;4.20;99.90;;;;;;4975453;28;20428;-90